createdAt,value
2018-07-17T00:02:03.606Z,65.39
2018-07-17T00:04:30.861Z,65.29
2018-07-17T00:07:08.406Z,65.31
2018-07-17T00:09:35.709Z,65.70
2018-07-17T00:12:02.982Z,65.39
2018-07-17T00:14:30.235Z,65.82
2018-07-17T00:24:35.646Z,66.62
2018-07-17T00:27:02.908Z,66.78
2018-07-17T00:29:30.165Z,67.22
2018-07-17T00:31:57.447Z,66.89
2018-07-17T00:34:24.681Z,66.64
2018-07-17T00:36:51.928Z,66.51
2018-07-17T00:39:19.143Z,66.76
2018-07-17T00:41:46.402Z,67.04
2018-07-17T00:44:13.641Z,67.30
2018-07-17T00:46:40.906Z,67.63
2018-07-17T00:49:08.210Z,67.23
2018-07-17T00:51:35.457Z,67.34
2018-07-17T00:54:02.714Z,66.70
2018-07-17T00:56:29.970Z,67.01
2018-07-17T00:58:57.211Z,66.91
2018-07-17T01:01:30.137Z,66.47
2018-07-17T01:04:02.961Z,66.58
2018-07-17T01:06:35.898Z,66.50
2018-07-17T01:09:09.759Z,66.25
2018-07-17T01:11:42.785Z,66.03
2018-07-17T01:14:28.630Z,65.90
2018-07-17T01:16:55.945Z,66.10
2018-07-17T01:19:23.175Z,66.52
2018-07-17T01:21:50.502Z,66.67
2018-07-17T01:24:17.728Z,66.46
2018-07-17T01:26:45.006Z,66.85
2018-07-17T01:29:12.218Z,66.85
2018-07-17T01:31:39.616Z,66.79
2018-07-17T01:34:06.857Z,67.55
2018-07-17T01:36:34.216Z,67.35
2018-07-17T01:39:01.489Z,67.91
2018-07-17T01:41:28.777Z,67.56
2018-07-17T01:43:56.043Z,67.93
2018-07-17T01:46:23.283Z,68.04
2018-07-17T01:48:50.575Z,68.05
2018-07-17T01:51:17.919Z,68.39
2018-07-17T01:53:45.364Z,68.17
2018-07-17T01:56:12.591Z,67.89
2018-07-17T01:58:39.854Z,68.10
2018-07-17T02:01:07.304Z,67.59
2018-07-17T02:03:34.582Z,67.56
2018-07-17T02:06:01.846Z,67.98
2018-07-17T02:08:29.263Z,67.61
2018-07-17T02:10:56.504Z,68.12
2018-07-17T02:13:23.764Z,68.04
2018-07-17T02:16:11.470Z,68.74
2018-07-17T02:18:38.899Z,69.13
2018-07-17T02:21:06.441Z,68.88
2018-07-17T02:23:33.728Z,69.19
2018-07-17T02:26:01.039Z,69.10
2018-07-17T02:28:28.322Z,69.11
2018-07-17T02:30:55.604Z,69.04
2018-07-17T02:33:22.830Z,68.70
2018-07-17T02:35:50.099Z,69.13
2018-07-17T02:38:17.340Z,68.72
2018-07-17T02:40:44.570Z,68.82
2018-07-17T02:43:11.815Z,68.82
2018-07-17T02:45:39.079Z,68.60
2018-07-17T02:48:06.311Z,67.98
2018-07-17T02:50:33.592Z,67.75
2018-07-17T02:53:00.841Z,67.78
2018-07-17T02:55:28.141Z,68.50
2018-07-17T02:57:55.386Z,68.44
2018-07-17T03:00:22.724Z,68.45
2018-07-17T03:02:49.985Z,68.69
2018-07-17T03:05:17.330Z,68.57
2018-07-17T03:07:44.696Z,68.36
2018-07-17T03:10:12.101Z,68.48
2018-07-17T03:12:39.426Z,67.90
2018-07-17T03:15:06.774Z,67.61
2018-07-17T03:17:34.103Z,67.76
2018-07-17T03:20:03.333Z,67.56
2018-07-17T03:22:31.898Z,67.36
2018-07-17T03:25:00.412Z,67.34
2018-07-17T03:27:27.903Z,66.87
2018-07-17T03:29:55.201Z,67.21
2018-07-17T03:32:22.519Z,67.16
2018-07-17T03:34:49.838Z,66.95
2018-07-17T03:37:17.187Z,67.11
2018-07-17T03:39:45.078Z,66.98
2018-07-17T03:42:12.516Z,66.67
2018-07-17T03:44:39.844Z,67.04
2018-07-17T03:47:07.160Z,67.08
2018-07-17T03:49:34.467Z,66.68
2018-07-17T03:52:01.981Z,66.07
2018-07-17T03:54:29.313Z,65.66
2018-07-17T03:56:56.882Z,66.00
2018-07-17T03:59:24.318Z,65.70
2018-07-17T04:01:51.839Z,65.17
2018-07-17T04:04:19.236Z,65.61
2018-07-17T04:06:46.573Z,65.58
2018-07-17T04:09:14.479Z,65.29
2018-07-17T04:11:41.821Z,65.75
2018-07-17T04:14:09.186Z,65.30
2018-07-17T04:16:41.073Z,65.34
2018-07-17T04:19:08.642Z,65.31
2018-07-17T04:21:35.978Z,65.16
2018-07-17T04:24:03.411Z,65.33
2018-07-17T04:26:30.787Z,64.68
2018-07-17T04:28:58.142Z,64.66
2018-07-17T04:31:25.414Z,63.40
2018-07-17T04:33:52.816Z,63.36
2018-07-17T04:36:20.163Z,63.40
2018-07-17T04:38:47.565Z,63.65
2018-07-17T04:41:14.903Z,62.51
2018-07-17T04:43:42.248Z,62.22
2018-07-17T04:46:09.593Z,61.96
2018-07-17T04:48:37.766Z,61.88
2018-07-17T04:51:05.346Z,61.49
2018-07-17T04:53:32.651Z,61.70
2018-07-17T04:56:00.041Z,60.39
2018-07-17T04:58:27.332Z,60.30
2018-07-17T05:00:54.703Z,59.83
2018-07-17T05:03:21.999Z,59.28
2018-07-17T05:05:49.368Z,58.54
2018-07-17T05:08:16.811Z,58.42
2018-07-17T05:10:44.158Z,57.97
2018-07-17T05:13:11.508Z,57.54
2018-07-17T05:15:38.817Z,56.93
2018-07-17T05:18:06.123Z,56.57
2018-07-17T05:20:33.501Z,55.76
2018-07-17T05:23:00.854Z,55.70
2018-07-17T05:25:28.270Z,55.88
2018-07-17T05:27:56.424Z,55.78
2018-07-17T05:30:23.859Z,55.60
2018-07-17T05:32:51.177Z,55.06
2018-07-17T05:35:18.561Z,52.01
2018-07-17T05:37:45.908Z,50.40
2018-07-17T05:40:13.260Z,49.09
2018-07-17T05:42:40.696Z,48.66
2018-07-17T05:45:08.060Z,48.08
2018-07-17T05:47:39.937Z,47.80
2018-07-17T05:50:07.463Z,46.83
2018-07-17T05:52:35.885Z,46.00
2018-07-17T05:55:03.521Z,45.63
2018-07-17T05:57:31.132Z,44.93
2018-07-17T05:59:58.571Z,44.11
2018-07-17T06:02:25.854Z,42.89
2018-07-17T06:04:53.206Z,43.36
2018-07-17T06:07:20.561Z,43.05
2018-07-17T06:09:47.899Z,41.74
2018-07-17T06:12:15.298Z,41.91
2018-07-17T06:14:42.604Z,41.53
2018-07-17T06:17:10.243Z,41.18
2018-07-17T06:19:37.542Z,40.79
2018-07-17T06:22:04.958Z,40.55
2018-07-17T06:24:32.307Z,39.75
2018-07-17T06:26:59.618Z,38.94
2018-07-17T06:29:26.943Z,39.33
2018-07-17T06:31:54.214Z,38.10
2018-07-17T06:34:21.532Z,38.98
2018-07-17T06:36:48.866Z,38.91
2018-07-17T06:39:16.669Z,39.84
2018-07-17T06:41:44.019Z,39.63
2018-07-17T06:44:11.325Z,40.75
2018-07-17T06:46:38.659Z,40.86
2018-07-17T06:49:05.987Z,40.78
2018-07-17T06:51:33.334Z,40.66
2018-07-17T06:54:00.668Z,40.34
2018-07-17T06:56:27.998Z,39.52
2018-07-17T06:58:55.421Z,39.42
2018-07-17T07:01:22.709Z,37.70
2018-07-17T07:03:50.044Z,36.18
2018-07-17T07:06:17.323Z,34.91
2018-07-17T07:08:44.635Z,34.72
2018-07-17T07:11:12.588Z,33.53
2018-07-17T07:13:40.015Z,33.14
2018-07-17T07:16:08.307Z,32.98
2018-07-17T07:18:35.622Z,33.08
2018-07-17T07:21:02.968Z,33.67
2018-07-17T07:23:30.226Z,32.23
2018-07-17T07:25:57.641Z,32.38
2018-07-17T07:28:24.972Z,33.02
2018-07-17T07:30:52.324Z,32.34
2018-07-17T07:33:20.094Z,32.00
2018-07-17T07:35:47.551Z,31.47
2018-07-17T07:38:14.979Z,30.67
2018-07-17T07:40:42.392Z,30.99
2018-07-17T07:43:10.028Z,30.57
2018-07-17T07:45:37.371Z,30.79
2018-07-17T07:48:04.911Z,29.98
2018-07-17T07:50:32.334Z,29.47
2018-07-17T07:52:59.622Z,29.39
2018-07-17T07:55:27.211Z,28.44
2018-07-17T07:57:54.533Z,28.70
2018-07-17T08:00:21.835Z,28.48
2018-07-17T08:02:49.153Z,27.67
2018-07-17T08:05:16.549Z,27.42
2018-07-17T08:07:43.967Z,28.38
2018-07-17T08:10:11.333Z,28.13
2018-07-17T08:12:38.803Z,27.12
2018-07-17T08:15:06.200Z,26.31
2018-07-17T08:17:33.579Z,25.87
2018-07-17T08:20:00.877Z,24.92
2018-07-17T08:22:28.886Z,23.52
2018-07-17T08:24:56.277Z,24.58
2018-07-17T08:27:23.675Z,25.16
2018-07-17T08:29:51.078Z,24.39
2018-07-17T08:32:18.438Z,23.63
2018-07-17T08:34:45.730Z,24.88
2018-07-17T08:37:16.666Z,23.67
2018-07-17T08:39:43.986Z,24.86
2018-07-17T08:42:11.493Z,24.98
2018-07-17T08:44:38.781Z,24.34
2018-07-17T08:47:06.151Z,23.92
2018-07-17T08:49:33.543Z,23.99
2018-07-17T08:52:00.843Z,22.10
2018-07-17T08:54:28.247Z,22.89
2018-07-17T08:56:55.513Z,23.47
2018-07-17T08:59:22.900Z,21.73
2018-07-17T09:01:50.375Z,22.88
2018-07-17T09:04:17.927Z,21.65
2018-07-17T09:06:45.209Z,22.03
2018-07-17T09:09:12.583Z,22.23
2018-07-17T09:11:40.449Z,22.05
2018-07-17T09:14:07.833Z,22.11
2018-07-17T09:16:35.148Z,21.28
2018-07-17T09:19:02.565Z,20.66
2018-07-17T09:21:29.857Z,21.60
2018-07-17T09:23:57.191Z,22.05
2018-07-17T09:26:24.517Z,21.94
2018-07-17T09:28:51.852Z,21.94
2018-07-17T09:31:19.215Z,21.71
2018-07-17T09:33:46.553Z,20.33
2018-07-17T09:36:13.878Z,19.99
2018-07-17T09:38:41.216Z,20.18
2018-07-17T09:41:08.680Z,19.90
2018-07-17T09:43:36.052Z,19.91
2018-07-17T09:46:03.453Z,20.35
2018-07-17T09:48:30.745Z,19.78
2018-07-17T09:50:59.059Z,20.53
2018-07-17T09:53:26.578Z,19.78
2018-07-17T09:55:53.887Z,19.33
2018-07-17T09:58:22.271Z,19.71
2018-07-17T10:00:55.292Z,19.29
2018-07-17T10:03:23.166Z,19.01
2018-07-17T10:05:50.464Z,19.26
2018-07-17T10:08:17.895Z,18.95
2018-07-17T10:10:45.250Z,18.70
2018-07-17T10:13:12.557Z,17.67
2018-07-17T10:15:39.878Z,18.15
2018-07-17T10:18:07.246Z,17.37
2018-07-17T10:20:34.552Z,17.51
2018-07-17T10:23:01.919Z,17.95
2018-07-17T10:25:29.283Z,17.48
2018-07-17T10:27:56.558Z,17.05
2018-07-17T10:30:23.900Z,17.00
2018-07-17T10:32:51.230Z,18.09
2018-07-17T10:35:18.579Z,18.61
2018-07-17T10:37:45.972Z,18.74
2018-07-17T10:40:13.450Z,18.10
2018-07-17T10:42:41.738Z,17.65
2018-07-17T10:45:09.118Z,17.33
2018-07-17T10:47:36.548Z,16.75
2018-07-17T10:50:03.922Z,17.63
2018-07-17T10:52:31.505Z,17.85
2018-07-17T10:54:59.030Z,17.32
2018-07-17T10:57:26.392Z,16.14
2018-07-17T10:59:53.735Z,17.84
2018-07-17T11:02:21.138Z,17.25
2018-07-17T11:04:48.581Z,16.66
2018-07-17T11:07:16.446Z,16.20
2018-07-17T11:09:43.760Z,17.68
2018-07-17T11:12:11.067Z,17.40
2018-07-17T11:14:38.518Z,17.97
2018-07-17T11:17:06.726Z,16.42
2018-07-17T11:19:34.008Z,17.84
2018-07-17T11:22:01.457Z,18.48
2018-07-17T11:24:28.766Z,18.75
2018-07-17T11:26:56.122Z,19.34
2018-07-17T11:29:24.240Z,17.87
2018-07-17T11:31:51.556Z,17.29
2018-07-17T11:34:18.971Z,18.38
2018-07-17T11:36:46.317Z,17.81
2018-07-17T11:39:13.649Z,18.19
2018-07-17T11:41:41.027Z,18.54
2018-07-17T11:44:08.403Z,19.20
2018-07-17T11:46:35.733Z,20.02
2018-07-17T11:49:03.120Z,20.42
2018-07-17T11:51:30.456Z,20.45
2018-07-17T11:53:57.814Z,19.36
2018-07-17T11:56:25.344Z,19.14
2018-07-17T11:58:52.737Z,19.02
2018-07-17T12:01:21.161Z,19.01
2018-07-17T12:03:48.494Z,18.52
2018-07-17T12:06:15.788Z,17.88
2018-07-17T12:08:43.113Z,18.09
2018-07-17T12:11:11.077Z,17.94
2018-07-17T12:13:38.450Z,16.56
2018-07-17T12:16:05.900Z,16.69
2018-07-17T12:18:33.242Z,16.55
2018-07-17T12:21:01.150Z,15.46
2018-07-17T12:23:28.519Z,14.62
2018-07-17T12:25:55.852Z,15.08
2018-07-17T12:28:23.204Z,15.31
2018-07-17T12:30:50.879Z,15.45
2018-07-17T12:33:18.147Z,15.32
2018-07-17T12:35:46.142Z,14.75
2018-07-17T12:38:13.446Z,13.89
2018-07-17T12:40:40.801Z,15.31
2018-07-17T12:43:08.099Z,14.88
2018-07-17T12:45:35.459Z,14.65
2018-07-17T12:48:02.855Z,15.04
2018-07-17T12:50:30.214Z,15.13
2018-07-17T12:52:58.519Z,15.67
2018-07-17T12:55:25.980Z,15.96
2018-07-17T12:57:54.926Z,16.74
2018-07-17T13:00:22.302Z,17.30
2018-07-17T13:02:50.047Z,17.09
2018-07-17T13:05:18.438Z,17.25
2018-07-17T13:08:02.059Z,17.06
2018-07-17T13:10:29.459Z,16.65
2018-07-17T13:12:56.899Z,16.43
2018-07-17T13:15:24.248Z,16.84
2018-07-17T13:17:51.612Z,17.53
2018-07-17T13:20:19.050Z,17.92
2018-07-17T13:22:46.390Z,17.51
2018-07-17T13:25:14.430Z,17.08
2018-07-17T13:27:41.758Z,17.36
2018-07-17T13:30:09.086Z,17.12
2018-07-17T13:32:36.694Z,16.74
2018-07-17T13:35:04.167Z,16.46
2018-07-17T13:37:31.766Z,16.69
2018-07-17T13:39:59.112Z,16.80
2018-07-17T13:42:26.450Z,16.88
2018-07-17T13:44:53.901Z,17.10
2018-07-17T13:47:21.180Z,16.86
2018-07-17T13:49:49.219Z,16.55
2018-07-17T13:52:16.593Z,16.37
2018-07-17T13:54:43.916Z,16.79
2018-07-17T13:57:11.248Z,16.65
2018-07-17T13:59:38.621Z,17.12
2018-07-17T14:02:06.811Z,17.43
2018-07-17T14:04:34.148Z,17.39
2018-07-17T14:07:01.662Z,16.37
2018-07-17T14:09:29.087Z,16.79
2018-07-17T14:11:56.411Z,16.22
2018-07-17T14:14:24.456Z,17.31
2018-07-17T14:16:52.066Z,16.88
2018-07-17T14:19:19.358Z,16.51
2018-07-17T14:21:46.674Z,16.77
2018-07-17T14:24:14.185Z,16.60
2018-07-17T14:26:41.487Z,16.37
2018-07-17T14:29:08.914Z,16.92
2018-07-17T14:31:36.414Z,16.45
2018-07-17T14:34:03.787Z,16.30
2018-07-17T14:36:31.118Z,16.31
2018-07-17T14:38:58.444Z,16.66
2018-07-17T14:41:26.211Z,16.46
2018-07-17T14:43:53.572Z,16.59
2018-07-17T14:46:20.922Z,16.49
2018-07-17T14:48:48.287Z,16.74
2018-07-17T14:51:15.639Z,17.64
2018-07-17T14:53:42.981Z,17.75
2018-07-17T14:56:10.512Z,18.47
2018-07-17T14:58:37.847Z,18.29
2018-07-17T15:01:05.910Z,17.68
2018-07-17T15:03:33.599Z,17.77
2018-07-17T15:06:01.123Z,18.00
2018-07-17T15:08:28.855Z,17.92
2018-07-17T15:10:57.304Z,17.97
2018-07-17T15:13:24.661Z,17.62
2018-07-17T15:15:52.087Z,18.22
2018-07-17T15:18:20.056Z,18.88
2018-07-17T15:20:47.381Z,17.79
2018-07-17T15:23:14.721Z,18.35
2018-07-17T15:25:42.103Z,17.88
2018-07-17T15:28:09.425Z,17.88
2018-07-17T15:30:36.854Z,18.32
2018-07-17T15:33:04.627Z,17.91
2018-07-17T15:35:33.672Z,18.11
2018-07-17T15:38:13.829Z,18.29
2018-07-17T15:40:41.269Z,17.97
2018-07-17T15:43:09.301Z,17.89
2018-07-17T15:45:36.766Z,17.65
2018-07-17T15:48:04.057Z,17.26
2018-07-17T15:50:32.654Z,18.26
2018-07-17T15:53:00.107Z,17.64
2018-07-17T15:55:27.424Z,17.59
2018-07-17T15:57:54.999Z,17.97
2018-07-17T16:00:22.352Z,18.06
2018-07-17T16:02:49.745Z,17.88
2018-07-17T16:05:17.574Z,17.26
2018-07-17T16:07:45.097Z,17.54
2018-07-17T16:10:12.443Z,17.67
2018-07-17T16:12:39.846Z,17.45
2018-07-17T16:15:07.334Z,17.36
2018-07-17T16:17:35.045Z,17.47
2018-07-17T16:20:03.344Z,17.74
2018-07-17T16:22:30.581Z,17.60
2018-07-17T16:24:57.984Z,17.75
2018-07-17T16:27:25.374Z,18.03
2018-07-17T16:29:52.749Z,17.57
2018-07-17T16:32:20.132Z,18.27
2018-07-17T16:34:47.449Z,18.82
2018-07-17T16:37:14.783Z,18.78
2018-07-17T16:39:42.210Z,19.45
2018-07-17T16:42:09.569Z,19.61
2018-07-17T16:44:37.089Z,19.03
2018-07-17T16:47:04.380Z,18.71
2018-07-17T16:49:31.718Z,18.84
2018-07-17T16:51:59.129Z,19.13
2018-07-17T16:54:26.460Z,19.67
2018-07-17T16:56:53.794Z,19.73
2018-07-17T16:59:21.209Z,19.87
2018-07-17T17:01:48.590Z,19.53
2018-07-17T17:04:15.938Z,19.89
2018-07-17T17:06:43.279Z,20.08
2018-07-17T17:09:11.568Z,20.29
2018-07-17T17:11:38.871Z,20.09
2018-07-17T17:14:06.265Z,20.53
2018-07-17T17:16:33.578Z,20.54
2018-07-17T17:19:00.941Z,20.51
2018-07-17T17:21:28.463Z,20.42
2018-07-17T17:23:55.853Z,20.86
2018-07-17T17:26:24.238Z,20.93
2018-07-17T17:28:51.551Z,21.51
2018-07-17T17:31:18.957Z,21.80
2018-07-17T17:33:46.288Z,21.07
2018-07-17T17:36:13.634Z,21.27
2018-07-17T17:38:40.980Z,21.92
2018-07-17T17:41:08.351Z,21.52
2018-07-17T17:43:35.710Z,21.56
2018-07-17T17:46:03.246Z,21.97
2018-07-17T17:48:30.572Z,22.38
2018-07-17T17:50:57.917Z,22.41
2018-07-17T17:53:26.425Z,22.58
2018-07-17T17:55:54.436Z,22.73
2018-07-17T17:58:21.720Z,22.99
2018-07-17T18:00:49.362Z,23.12
2018-07-17T18:03:16.917Z,23.43
2018-07-17T18:05:45.422Z,23.43
2018-07-17T18:08:12.867Z,23.57
2018-07-17T18:10:40.299Z,23.66
2018-07-17T18:13:08.120Z,23.47
2018-07-17T18:15:35.734Z,24.04
2018-07-17T18:18:03.838Z,24.44
2018-07-17T18:20:33.609Z,24.20
2018-07-17T18:23:01.268Z,24.85
2018-07-17T18:25:28.625Z,24.77
2018-07-17T18:27:56.022Z,25.49
2018-07-17T18:30:23.334Z,25.34
2018-07-17T18:32:51.042Z,25.98
2018-07-17T18:35:18.440Z,25.70
2018-07-17T18:37:46.526Z,25.86
2018-07-17T18:40:13.902Z,26.42
2018-07-17T18:42:42.095Z,26.84
2018-07-17T18:45:09.487Z,26.47
2018-07-17T18:47:39.264Z,27.12
2018-07-17T18:50:12.869Z,27.35
2018-07-17T18:52:34.484Z,27.28
2018-07-17T18:55:01.860Z,27.60
2018-07-17T18:57:29.287Z,27.33
2018-07-17T18:59:56.734Z,27.50
2018-07-17T19:02:24.231Z,28.23
2018-07-17T19:04:52.825Z,28.43
2018-07-17T19:07:20.232Z,28.56
2018-07-17T19:09:48.443Z,28.96
2018-07-17T19:12:16.295Z,28.90
2018-07-17T19:14:43.824Z,28.75
2018-07-17T19:17:11.394Z,29.36
2018-07-17T19:19:38.854Z,29.27
2018-07-17T19:22:06.788Z,29.16
2018-07-17T19:24:34.159Z,29.51
2018-07-17T19:27:02.985Z,29.65
2018-07-17T19:29:30.416Z,30.28
2018-07-17T19:31:58.913Z,30.55
2018-07-17T19:34:26.576Z,30.64
2018-07-17T19:36:54.768Z,30.63
2018-07-17T19:39:22.103Z,30.55
2018-07-17T19:41:49.421Z,30.50
2018-07-17T19:44:16.815Z,31.00
2018-07-17T19:46:44.111Z,30.63
2018-07-17T19:49:11.462Z,30.67
2018-07-17T19:51:38.789Z,31.14
2018-07-17T19:54:06.139Z,30.91
2018-07-17T19:56:33.562Z,30.97
2018-07-17T19:59:00.974Z,31.43
2018-07-17T20:01:28.309Z,31.21
2018-07-17T20:03:55.634Z,31.52
2018-07-17T20:06:23.055Z,31.36
2018-07-17T20:08:50.391Z,31.29
2018-07-17T20:11:17.850Z,31.66
2018-07-17T20:13:45.181Z,31.50
2018-07-17T20:16:12.486Z,31.67
2018-07-17T20:18:39.761Z,31.54
2018-07-17T20:21:07.075Z,32.18
2018-07-17T20:23:34.562Z,32.20
2018-07-17T20:26:01.994Z,31.87
2018-07-17T20:28:29.309Z,32.32
2018-07-17T20:30:56.821Z,32.66
2018-07-17T20:33:24.089Z,33.15
2018-07-17T20:35:51.325Z,33.47
2018-07-17T20:38:18.610Z,34.07
2018-07-17T20:40:45.906Z,34.57
2018-07-17T20:43:13.177Z,34.79
2018-07-17T20:45:40.413Z,34.56
2018-07-17T20:48:07.693Z,34.47
2018-07-17T20:50:34.915Z,34.95
2018-07-17T20:53:02.226Z,35.56
2018-07-17T20:55:29.459Z,35.62
2018-07-17T20:57:56.739Z,35.64
2018-07-17T21:00:23.992Z,35.96
2018-07-17T21:02:51.396Z,36.20
2018-07-17T21:05:18.661Z,36.27
2018-07-17T21:07:45.935Z,36.09
2018-07-17T21:10:13.178Z,36.57
2018-07-17T21:12:40.426Z,36.35
2018-07-17T21:15:07.707Z,36.98
2018-07-17T21:17:34.969Z,36.80
2018-07-17T21:20:02.228Z,37.14
2018-07-17T21:22:29.519Z,37.44
2018-07-17T21:24:56.763Z,37.29
2018-07-17T21:27:24.049Z,37.49
2018-07-17T21:29:51.311Z,38.04
2018-07-17T21:32:18.570Z,38.44
2018-07-17T21:34:45.809Z,38.64
2018-07-17T21:37:13.061Z,39.43
2018-07-17T21:39:40.318Z,38.95
2018-07-17T21:42:07.676Z,39.87
2018-07-17T21:44:34.944Z,40.45
2018-07-17T21:47:02.282Z,40.80
2018-07-17T21:49:29.561Z,41.01
2018-07-17T21:51:56.809Z,41.28
2018-07-17T21:54:24.259Z,41.46
2018-07-17T21:56:51.501Z,41.82
2018-07-17T21:59:19.129Z,42.19
2018-07-17T22:01:46.366Z,42.48
2018-07-17T22:04:13.625Z,42.62
2018-07-17T22:06:40.849Z,42.67
2018-07-17T22:09:10.130Z,42.71
2018-07-17T22:11:37.375Z,42.96
2018-07-17T22:14:04.747Z,43.19
2018-07-17T22:16:32.006Z,43.08
2018-07-17T22:18:59.244Z,43.57
2018-07-17T22:21:26.493Z,43.85
2018-07-17T22:23:53.726Z,43.75
2018-07-17T22:26:23.134Z,44.13
2018-07-17T22:28:50.374Z,44.49
2018-07-17T22:31:17.654Z,44.53
2018-07-17T22:33:44.855Z,44.67
2018-07-17T22:36:12.174Z,44.69
2018-07-17T22:38:39.398Z,44.94
2018-07-17T22:41:06.706Z,44.53
2018-07-17T22:43:33.949Z,44.63
2018-07-17T22:46:01.194Z,44.32
2018-07-17T22:48:28.406Z,44.08
2018-07-17T22:50:55.683Z,44.28
2018-07-17T22:53:23.008Z,44.19
2018-07-17T22:55:50.324Z,44.15
2018-07-17T22:58:17.574Z,44.33
2018-07-17T23:00:44.792Z,44.62
2018-07-17T23:03:12.109Z,44.40
2018-07-17T23:05:39.349Z,44.72
2018-07-17T23:08:06.687Z,44.76
2018-07-17T23:10:33.918Z,44.81
2018-07-17T23:13:01.200Z,44.95
2018-07-17T23:15:28.461Z,45.06
2018-07-17T23:17:55.730Z,45.15
2018-07-17T23:20:22.973Z,45.02
2018-07-17T23:22:54.235Z,45.01
2018-07-17T23:25:22.751Z,45.29
2018-07-17T23:27:49.957Z,45.25
2018-07-17T23:30:17.673Z,45.30
2018-07-17T23:32:45.100Z,45.33
2018-07-17T23:35:12.338Z,45.24
2018-07-17T23:37:39.558Z,45.29
2018-07-17T23:40:06.818Z,45.41
2018-07-17T23:42:34.658Z,45.84
2018-07-17T23:45:01.895Z,45.72
2018-07-17T23:47:29.183Z,45.68
2018-07-17T23:49:56.454Z,45.69
2018-07-17T23:52:23.665Z,45.77
2018-07-17T23:54:50.917Z,45.90
2018-07-17T23:57:18.115Z,46.09
2018-07-17T23:59:45.374Z,46.58
